Time;durP1;ratioP1;P1;durP2;ratioP2;P2;SDS_P1;SDS_P2;PMS_P1;PMS_P2;Temp;Humidity;BMP_temperature;BMP_pressure;BME280_temperature;BME280_humidity;BME280_pressure;Samples;Min_cycle;Max_cycle;Signal;HPM_P1;HPM_P2
2022/11/12 00:01:23;;;;;;;18.83;13.67;;;;;;;;;;5074422;28;20867;-75
2022/11/12 00:04:12;;;;;;;17.03;14.77;;;;;;;;;;5074644;28;20457;-75
2022/11/12 00:07:02;;;;;;;18.80;13.10;;;;;;;;;;5073044;28;20450;-76
2022/11/12 00:09:50;;;;;;;15.60;13.67;;;;;;;;;;5075625;28;20482;-75
2022/11/12 00:12:42;;;;;;;15.30;13.70;;;;;;;;;;5070980;28;20844;-74
2022/11/12 00:15:33;;;;;;;15.53;13.50;;;;;;;;;;5067976;28;20954;-76
2022/11/12 00:18:24;;;;;;;15.53;13.73;;;;;;;;;;5072819;28;23058;-75
2022/11/12 00:21:16;;;;;;;14.83;13.30;;;;;;;;;;5071792;28;20478;-75
2022/11/12 00:24:09;;;;;;;16.43;14.10;;;;;;;;;;5070737;28;20464;-75
2022/11/12 00:26:59;;;;;;;16.07;13.03;;;;;;;;;;5078264;28;20457;-75
2022/11/12 00:29:52;;;;;;;14.97;13.37;;;;;;;;;;5071839;28;20483;-75
2022/11/12 00:32:42;;;;;;;13.63;11.87;;;;;;;;;;5076421;28;21270;-75
2022/11/12 00:35:34;;;;;;;14.90;12.90;;;;;;;;;;5075202;28;20450;-74
2022/11/12 00:38:22;;;;;;;17.83;12.73;;;;;;;;;;5076484;28;20444;-75
2022/11/12 00:41:13;;;;;;;14.60;12.57;;;;;;;;;;5070727;28;20495;-75
2022/11/12 00:44:02;;;;;;;15.33;12.63;;;;;;;;;;5073646;28;20465;-75
2022/11/12 00:46:56;;;;;;;15.47;13.80;;;;;;;;;;5074853;28;20459;-74
2022/11/12 00:49:44;;;;;;;15.50;12.07;;;;;;;;;;5076114;28;20501;-77
2022/11/12 00:52:34;;;;;;;16.03;11.93;;;;;;;;;;5073235;28;20476;-74
2022/11/12 00:55:25;;;;;;;13.40;12.00;;;;;;;;;;5074005;28;20461;-76
2022/11/12 00:58:14;;;;;;;15.57;11.83;;;;;;;;;;5078616;28;20453;-74
2022/11/12 01:01:06;;;;;;;16.03;12.07;;;;;;;;;;5064680;28;20998;-74
2022/11/12 01:03:59;;;;;;;13.40;11.83;;;;;;;;;;5072904;28;20562;-75
2022/11/12 01:06:48;;;;;;;14.13;11.20;;;;;;;;;;5075265;28;20449;-74
2022/11/12 01:09:40;;;;;;;15.03;11.57;;;;;;;;;;5072660;28;20470;-74
2022/11/12 01:12:31;;;;;;;17.13;12.10;;;;;;;;;;5075026;28;20478;-74
2022/11/12 01:15:21;;;;;;;13.73;11.27;;;;;;;;;;5079362;28;20445;-74
2022/11/12 01:18:10;;;;;;;11.63;9.90;;;;;;;;;;5076601;28;20824;-74
2022/11/12 01:21:07;;;;;;;13.50;11.30;;;;;;;;;;5077135;28;20487;-74
2022/11/12 01:23:57;;;;;;;13.27;11.73;;;;;;;;;;5074699;28;20984;-75
2022/11/12 01:26:46;;;;;;;13.27;10.87;;;;;;;;;;5072175;28;20451;-74
2022/11/12 01:29:39;;;;;;;14.90;11.23;;;;;;;;;;5065297;28;20996;-74
2022/11/12 01:32:34;;;;;;;11.10;10.00;;;;;;;;;;5076615;28;20484;-74
2022/11/12 01:35:25;;;;;;;12.03;10.43;;;;;;;;;;5093438;28;20483;-75
2022/11/12 01:38:16;;;;;;;12.40;10.37;;;;;;;;;;5094483;28;20468;-75
2022/11/12 01:41:07;;;;;;;13.00;11.60;;;;;;;;;;5096029;28;20574;-75
2022/11/12 01:44:10;;;;;;;13.07;11.67;;;;;;;;;;5087675;28;20449;-74
2022/11/12 01:47:01;;;;;;;12.07;9.90;;;;;;;;;;5081140;28;20450;-75
2022/11/12 01:49:56;;;;;;;14.17;10.60;;;;;;;;;;5079531;28;20473;-75
2022/11/12 01:52:55;;;;;;;12.30;10.33;;;;;;;;;;5078074;28;20480;-74
2022/11/12 01:55:45;;;;;;;11.70;10.50;;;;;;;;;;5077414;28;20446;-74
2022/11/12 01:58:34;;;;;;;12.30;11.00;;;;;;;;;;5079860;28;20442;-74
2022/11/12 02:01:33;;;;;;;12.73;11.30;;;;;;;;;;5073822;28;20871;-75
2022/11/12 02:04:22;;;;;;;11.27;10.17;;;;;;;;;;5078629;28;20569;-75
2022/11/12 02:07:11;;;;;;;12.47;10.90;;;;;;;;;;5072204;28;20457;-74
2022/11/12 02:10:03;;;;;;;13.60;11.30;;;;;;;;;;5068362;28;20522;-74
2022/11/12 02:16:13;;;;;;;14.60;11.03;;;;;;;;;;5077813;28;20463;-74
2022/11/12 02:19:07;;;;;;;13.50;12.13;;;;;;;;;;5074574;28;20851;-74
2022/11/12 02:22:01;;;;;;;12.40;11.20;;;;;;;;;;5076189;28;20503;-75
2022/11/12 02:24:51;;;;;;;12.57;11.37;;;;;;;;;;5078492;28;20450;-74
2022/11/12 02:27:53;;;;;;;12.40;11.10;;;;;;;;;;5074122;28;20988;-74
2022/11/12 02:30:42;;;;;;;12.63;11.20;;;;;;;;;;5076052;28;21130;-75
2022/11/12 02:33:41;;;;;;;13.17;11.87;;;;;;;;;;5075109;28;20465;-74
2022/11/12 02:36:34;;;;;;;12.77;11.57;;;;;;;;;;5072511;28;21387;-74
2022/11/12 02:39:28;;;;;;;16.13;12.63;;;;;;;;;;5080206;28;20449;-74
2022/11/12 02:42:19;;;;;;;12.10;10.90;;;;;;;;;;5096988;28;20575;-75
2022/11/12 02:45:12;;;;;;;13.03;11.20;;;;;;;;;;5099797;28;20573;-75
2022/11/12 02:48:03;;;;;;;13.13;11.80;;;;;;;;;;5087024;28;20450;-75
2022/11/12 02:50:53;;;;;;;15.10;11.87;;;;;;;;;;5080040;28;20481;-74
2022/11/12 02:53:43;;;;;;;14.27;12.77;;;;;;;;;;5075904;28;20453;-74
2022/11/12 02:56:35;;;;;;;13.13;11.73;;;;;;;;;;5079201;28;20489;-74
2022/11/12 02:59:26;;;;;;;13.93;12.53;;;;;;;;;;5076684;28;20450;-75
2022/11/12 03:02:30;;;;;;;17.30;12.40;;;;;;;;;;5078917;28;20559;-75
2022/11/12 03:05:18;;;;;;;13.70;12.33;;;;;;;;;;5077740;28;20456;-75
2022/11/12 03:08:10;;;;;;;13.97;12.33;;;;;;;;;;5073522;28;20450;-74
2022/11/12 03:11:06;;;;;;;15.30;13.80;;;;;;;;;;5075967;28;20472;-75
2022/11/12 03:14:00;;;;;;;12.77;11.50;;;;;;;;;;5077228;28;20442;-77
2022/11/12 03:16:50;;;;;;;15.23;12.53;;;;;;;;;;5078612;28;20446;-76
2022/11/12 03:19:38;;;;;;;15.10;13.47;;;;;;;;;;5073623;28;20454;-75
2022/11/12 03:22:27;;;;;;;14.73;12.50;;;;;;;;;;5071474;28;20478;-75
2022/11/12 03:25:17;;;;;;;13.80;12.40;;;;;;;;;;5075397;28;20472;-75
2022/11/12 03:28:09;;;;;;;14.50;12.80;;;;;;;;;;5073676;28;20461;-74
2022/11/12 03:31:02;;;;;;;14.97;13.37;;;;;;;;;;5079021;28;20474;-76
2022/11/12 03:33:54;;;;;;;14.20;12.50;;;;;;;;;;5072999;28;20503;-74
2022/11/12 03:36:54;;;;;;;14.87;13.37;;;;;;;;;;5061143;28;20455;-75
2022/11/12 03:39:42;;;;;;;14.03;12.40;;;;;;;;;;5070832;28;20825;-76
2022/11/12 03:42:32;;;;;;;15.43;13.80;;;;;;;;;;5070945;28;20575;-75
2022/11/12 03:45:25;;;;;;;15.43;13.37;;;;;;;;;;5071367;28;20449;-75
2022/11/12 03:48:23;;;;;;;13.90;12.50;;;;;;;;;;5070762;28;21019;-75
2022/11/12 03:51:15;;;;;;;13.87;12.50;;;;;;;;;;5071007;28;23008;-75
2022/11/12 03:54:06;;;;;;;13.70;11.80;;;;;;;;;;5073517;28;20459;-75
2022/11/12 03:57:01;;;;;;;13.90;12.50;;;;;;;;;;5077210;28;20449;-76
2022/11/12 03:59:52;;;;;;;14.23;12.33;;;;;;;;;;5081248;28;20455;-76
2022/11/12 04:02:43;;;;;;;15.83;12.73;;;;;;;;;;5066957;28;20485;-75
2022/11/12 04:08:40;;;;;;;14.70;13.20;;;;;;;;;;5069698;28;20445;-75
2022/11/12 04:11:28;;;;;;;15.37;12.40;;;;;;;;;;5073486;28;20486;-75
2022/11/12 04:14:22;;;;;;;13.10;11.80;;;;;;;;;;5072329;28;21519;-74
2022/11/12 04:23:29;;;;;;;15.73;13.83;;;;;;;;;;5073643;28;20445;-75
2022/11/12 04:26:24;;;;;;;14.03;12.63;;;;;;;;;;5077024;28;20573;-75
2022/11/12 04:32:25;;;;;;;15.87;14.23;;;;;;;;;;5073560;28;21024;-75
2022/11/12 04:35:14;;;;;;;15.03;12.43;;;;;;;;;;5074290;28;20844;-74
2022/11/12 04:38:04;;;;;;;14.43;12.93;;;;;;;;;;5090631;28;20473;-75
2022/11/12 04:47:11;;;;;;;15.47;13.50;;;;;;;;;;5099272;28;20453;-75
2022/11/12 04:50:01;;;;;;;13.87;12.47;;;;;;;;;;5098704;28;20473;-76
2022/11/12 04:52:52;;;;;;;13.80;12.40;;;;;;;;;;5100477;28;20454;-75
2022/11/12 04:55:50;;;;;;;16.57;13.03;;;;;;;;;;5099722;28;20470;-75
2022/11/12 04:58:40;;;;;;;16.43;14.50;;;;;;;;;;5093551;28;20484;-75
2022/11/12 05:01:36;;;;;;;14.30;12.30;;;;;;;;;;5092683;28;20489;-75
2022/11/12 05:04:28;;;;;;;13.57;12.00;;;;;;;;;;5091220;28;20475;-75
2022/11/12 05:07:21;;;;;;;14.27;12.70;;;;;;;;;;5077981;28;20465;-75
2022/11/12 05:10:11;;;;;;;14.60;13.03;;;;;;;;;;5084359;28;20473;-75
2022/11/12 05:13:00;;;;;;;15.53;13.60;;;;;;;;;;5078684;28;20478;-74
2022/11/12 05:15:58;;;;;;;15.93;13.07;;;;;;;;;;5081330;28;20461;-74
2022/11/12 05:18:51;;;;;;;14.53;12.83;;;;;;;;;;5080484;28;20445;-74
2022/11/12 05:24:57;;;;;;;14.20;12.50;;;;;;;;;;5077739;28;20461;-75
2022/11/12 05:27:47;;;;;;;14.30;12.80;;;;;;;;;;5079349;28;21075;-74
2022/11/12 05:30:36;;;;;;;14.03;12.67;;;;;;;;;;5080884;28;20477;-75
2022/11/12 05:33:28;;;;;;;13.80;12.37;;;;;;;;;;5079862;28;20459;-74
2022/11/12 05:36:17;;;;;;;14.97;13.40;;;;;;;;;;5076228;28;20445;-74
2022/11/12 05:39:07;;;;;;;16.83;12.97;;;;;;;;;;5079395;28;20481;-74
2022/11/12 05:41:56;;;;;;;13.60;12.20;;;;;;;;;;5076808;28;20482;-74
2022/11/12 05:45:02;;;;;;;14.83;13.33;;;;;;;;;;5078085;28;20456;-75
2022/11/12 05:47:53;;;;;;;13.70;11.50;;;;;;;;;;5077028;28;21215;-75
2022/11/12 05:50:52;;;;;;;15.70;12.87;;;;;;;;;;5078788;28;21000;-74
2022/11/12 05:54:01;;;;;;;15.37;11.90;;;;;;;;;;5081092;28;20464;-74
2022/11/12 05:56:54;;;;;;;12.83;11.40;;;;;;;;;;5078563;28;20457;-74
2022/11/12 05:59:57;;;;;;;14.40;12.00;;;;;;;;;;5074422;28;20983;-75
2022/11/12 06:02:55;;;;;;;12.53;11.23;;;;;;;;;;5075435;28;20502;-74
2022/11/12 06:05:53;;;;;;;14.70;13.20;;;;;;;;;;5072903;28;20857;-75
2022/11/12 06:08:41;;;;;;;14.07;12.67;;;;;;;;;;5079822;28;20464;-75
2022/11/12 06:11:30;;;;;;;13.50;12.20;;;;;;;;;;5079242;28;20477;-74
2022/11/12 06:14:18;;;;;;;14.73;12.63;;;;;;;;;;5072601;28;20977;-75
2022/11/12 06:17:09;;;;;;;13.13;11.77;;;;;;;;;;5066457;28;20983;-75
2022/11/12 06:20:02;;;;;;;14.53;12.20;;;;;;;;;;5075754;28;20441;-75
2022/11/12 06:22:57;;;;;;;13.17;10.90;;;;;;;;;;5073646;28;20949;-75
2022/11/12 06:25:47;;;;;;;17.90;12.63;;;;;;;;;;5078154;28;20960;-74
2022/11/12 06:28:39;;;;;;;13.40;11.67;;;;;;;;;;5078274;28;20892;-74
2022/11/12 06:31:35;;;;;;;12.37;10.97;;;;;;;;;;5076156;28;20484;-75
2022/11/12 06:34:26;;;;;;;15.03;11.80;;;;;;;;;;5077723;28;20466;-75
2022/11/12 06:37:15;;;;;;;13.93;12.50;;;;;;;;;;5069279;28;21170;-75
2022/11/12 06:40:05;;;;;;;14.77;13.27;;;;;;;;;;5080853;28;20863;-75
2022/11/12 06:42:57;;;;;;;14.50;13.03;;;;;;;;;;5078187;28;20482;-75
2022/11/12 06:45:51;;;;;;;14.37;12.77;;;;;;;;;;5073254;28;20465;-74
2022/11/12 06:48:40;;;;;;;16.63;13.90;;;;;;;;;;5080287;28;20455;-74
2022/11/12 06:51:30;;;;;;;14.60;13.10;;;;;;;;;;5075568;28;21045;-74
2022/11/12 06:54:18;;;;;;;15.53;13.60;;;;;;;;;;5077980;28;20987;-75
2022/11/12 06:57:10;;;;;;;16.70;14.63;;;;;;;;;;5079241;28;20820;-75
2022/11/12 07:00:03;;;;;;;14.53;12.90;;;;;;;;;;5076966;28;21056;-75
2022/11/12 07:03:06;;;;;;;16.10;14.50;;;;;;;;;;5071201;28;20604;-74
2022/11/12 07:05:54;;;;;;;17.40;14.63;;;;;;;;;;5069043;28;20468;-74
2022/11/12 07:08:43;;;;;;;15.77;14.23;;;;;;;;;;5071950;28;20457;-75
2022/11/12 07:11:32;;;;;;;15.00;13.43;;;;;;;;;;5069873;28;20478;-76
2022/11/12 07:14:22;;;;;;;14.70;13.20;;;;;;;;;;5076289;28;20974;-76
2022/11/12 07:17:10;;;;;;;15.27;13.67;;;;;;;;;;5077365;28;21194;-75
2022/11/12 07:19:59;;;;;;;15.77;12.83;;;;;;;;;;5077149;28;20460;-76
2022/11/12 07:22:51;;;;;;;16.50;14.70;;;;;;;;;;5094800;28;23854;-76
2022/11/12 07:25:41;;;;;;;15.73;14.10;;;;;;;;;;5090353;28;20469;-76
2022/11/12 07:28:30;;;;;;;15.20;13.60;;;;;;;;;;5080369;28;20451;-76
2022/11/12 07:31:20;;;;;;;17.00;15.40;;;;;;;;;;5067093;28;21004;-76
2022/11/12 07:34:09;;;;;;;17.47;14.93;;;;;;;;;;5076396;28;20459;-76
2022/11/12 07:37:06;;;;;;;17.20;14.03;;;;;;;;;;5076186;28;20552;-76
2022/11/12 07:39:55;;;;;;;15.83;14.13;;;;;;;;;;5079028;28;20855;-76
2022/11/12 07:42:44;;;;;;;16.30;14.50;;;;;;;;;;5072258;28;20832;-76
2022/11/12 07:45:32;;;;;;;18.63;15.67;;;;;;;;;;5077051;28;20453;-75
2022/11/12 07:48:22;;;;;;;18.47;15.50;;;;;;;;;;5071888;28;20468;-76
2022/11/12 07:51:13;;;;;;;17.50;15.07;;;;;;;;;;5073828;28;20477;-76
2022/11/12 07:54:05;;;;;;;17.50;14.57;;;;;;;;;;5068571;28;20450;-76
2022/11/12 07:56:53;;;;;;;16.47;14.70;;;;;;;;;;5072368;28;20493;-76
2022/11/12 07:59:44;;;;;;;18.33;16.40;;;;;;;;;;5076598;28;21197;-76
2022/11/12 08:02:34;;;;;;;16.90;15.10;;;;;;;;;;5069325;28;20482;-76
2022/11/12 08:05:24;;;;;;;16.30;14.50;;;;;;;;;;5071025;28;20464;-77
2022/11/12 08:08:12;;;;;;;18.10;16.30;;;;;;;;;;5078636;28;20447;-76
2022/11/12 08:11:01;;;;;;;20.30;16.93;;;;;;;;;;5072360;28;20481;-76
2022/11/12 08:13:50;;;;;;;17.43;15.63;;;;;;;;;;5073704;28;20465;-75
2022/11/12 08:16:38;;;;;;;18.13;16.23;;;;;;;;;;5072016;28;20457;-76
2022/11/12 08:19:27;;;;;;;17.63;15.80;;;;;;;;;;5072707;28;20453;-76
2022/11/12 08:22:17;;;;;;;17.13;15.43;;;;;;;;;;5070819;28;20488;-75
2022/11/12 08:25:06;;;;;;;16.43;14.73;;;;;;;;;;5063341;28;20461;-76
2022/11/12 08:27:58;;;;;;;18.60;16.60;;;;;;;;;;5064058;28;20453;-75
2022/11/12 08:30:46;;;;;;;18.40;15.73;;;;;;;;;;5070569;28;20570;-76
2022/11/12 08:33:35;;;;;;;18.37;16.47;;;;;;;;;;5066686;28;20479;-75
2022/11/12 08:36:24;;;;;;;17.00;15.20;;;;;;;;;;5073780;28;20451;-76
2022/11/12 08:39:14;;;;;;;17.97;16.07;;;;;;;;;;5069544;28;21346;-75
2022/11/12 08:42:03;;;;;;;17.13;15.33;;;;;;;;;;5071807;28;20492;-75
2022/11/12 08:44:51;;;;;;;17.63;15.57;;;;;;;;;;5074385;28;20449;-75
2022/11/12 08:47:40;;;;;;;19.50;16.30;;;;;;;;;;5074842;28;20509;-76
2022/11/12 08:50:29;;;;;;;19.90;17.13;;;;;;;;;;5070160;28;20606;-75
2022/11/12 08:53:18;;;;;;;18.03;16.13;;;;;;;;;;5077903;28;20493;-75
2022/11/12 08:56:08;;;;;;;17.87;16.17;;;;;;;;;;5074867;28;22437;-75
2022/11/12 08:58:59;;;;;;;18.83;16.87;;;;;;;;;;5073701;28;20456;-76
2022/11/12 09:01:54;;;;;;;19.23;15.83;;;;;;;;;;5077183;28;21019;-75
2022/11/12 09:04:45;;;;;;;14.53;13.13;;;;;;;;;;5078259;28;20461;-75
2022/11/12 09:07:33;;;;;;;15.73;14.17;;;;;;;;;;5072581;28;20453;-75
2022/11/12 09:10:38;;;;;;;16.90;15.20;;;;;;;;;;5065079;28;20545;-75
2022/11/12 09:13:28;;;;;;;16.63;14.57;;;;;;;;;;5076944;28;20488;-75
2022/11/12 09:16:17;;;;;;;17.47;14.50;;;;;;;;;;5072065;28;20461;-76
2022/11/12 09:19:06;;;;;;;18.33;15.30;;;;;;;;;;5068326;28;20468;-75
2022/11/12 09:21:55;;;;;;;17.53;14.50;;;;;;;;;;5074228;28;20484;-76
2022/11/12 09:24:43;;;;;;;17.97;15.97;;;;;;;;;;5068099;28;20450;-75
2022/11/12 09:27:32;;;;;;;18.57;16.10;;;;;;;;;;5071822;28;20945;-75
2022/11/12 09:30:22;;;;;;;18.27;15.27;;;;;;;;;;5071245;28;20485;-76
2022/11/12 09:33:11;;;;;;;17.77;15.47;;;;;;;;;;5071034;28;20595;-75
2022/11/12 09:36:01;;;;;;;18.77;16.77;;;;;;;;;;5070395;28;20467;-75
2022/11/12 09:38:49;;;;;;;17.53;15.80;;;;;;;;;;5071678;28;20960;-75
2022/11/12 09:41:39;;;;;;;19.23;16.47;;;;;;;;;;5080829;28;20492;-76
2022/11/12 09:44:27;;;;;;;17.40;15.60;;;;;;;;;;5073354;28;20449;-75
2022/11/12 09:47:27;;;;;;;18.77;15.90;;;;;;;;;;5066115;28;20874;-75
2022/11/12 09:50:23;;;;;;;17.33;15.50;;;;;;;;;;5070761;28;20469;-75
2022/11/12 09:53:17;;;;;;;17.87;16.07;;;;;;;;;;5071169;28;20541;-75
2022/11/12 09:56:06;;;;;;;17.80;15.90;;;;;;;;;;5076319;28;20960;-76
2022/11/12 09:58:55;;;;;;;18.13;16.33;;;;;;;;;;5071989;28;20472;-77
2022/11/12 10:01:52;;;;;;;16.50;14.90;;;;;;;;;;5075757;28;20473;-75
2022/11/12 10:04:49;;;;;;;16.47;14.73;;;;;;;;;;5077130;28;20490;-75
2022/11/12 10:07:46;;;;;;;16.73;15.03;;;;;;;;;;5074939;28;20443;-75
2022/11/12 10:10:38;;;;;;;18.37;15.03;;;;;;;;;;5075690;28;20468;-75
2022/11/12 10:13:32;;;;;;;15.87;14.27;;;;;;;;;;5079720;28;20469;-75
2022/11/12 10:16:45;;;;;;;16.83;15.00;;;;;;;;;;5079527;28;20453;-75
2022/11/12 10:19:38;;;;;;;16.57;14.83;;;;;;;;;;5075088;28;20976;-75
2022/11/12 10:22:36;;;;;;;16.70;14.97;;;;;;;;;;5074327;28;20470;-75
2022/11/12 10:25:25;;;;;;;15.30;13.53;;;;;;;;;;5073940;28;20487;-77
2022/11/12 10:28:17;;;;;;;15.70;13.67;;;;;;;;;;5068090;28;20461;-79
2022/11/12 10:31:11;;;;;;;18.97;14.47;;;;;;;;;;5084391;28;20470;-76
2022/11/12 10:34:10;;;;;;;16.30;14.57;;;;;;;;;;5099917;28;21002;-76
2022/11/12 10:37:01;;;;;;;15.27;13.77;;;;;;;;;;5096854;28;20450;-76
2022/11/12 10:39:51;;;;;;;14.70;12.80;;;;;;;;;;5089442;28;20464;-76
2022/11/12 10:42:57;;;;;;;15.30;13.87;;;;;;;;;;5085592;28;21515;-75
2022/11/12 10:45:50;;;;;;;14.60;13.10;;;;;;;;;;5082309;28;20453;-75
2022/11/12 10:48:38;;;;;;;15.37;13.87;;;;;;;;;;5091707;28;20454;-75
2022/11/12 10:51:28;;;;;;;14.50;13.00;;;;;;;;;;5092100;28;20486;-75
2022/11/12 10:54:22;;;;;;;16.17;13.43;;;;;;;;;;5093292;28;20479;-75
2022/11/12 10:57:22;;;;;;;15.53;13.93;;;;;;;;;;5084745;28;20615;-74
2022/11/12 11:00:19;;;;;;;16.17;12.80;;;;;;;;;;5072038;28;20461;-75
2022/11/12 11:03:16;;;;;;;18.17;13.43;;;;;;;;;;5070728;28;20675;-75
2022/11/12 11:06:06;;;;;;;14.80;13.40;;;;;;;;;;5063391;28;21445;-76
2022/11/12 11:09:09;;;;;;;14.63;13.20;;;;;;;;;;5066352;28;20462;-76
2022/11/12 11:11:58;;;;;;;13.87;12.50;;;;;;;;;;5064126;28;20485;-76
2022/11/12 11:15:06;;;;;;;14.20;12.70;;;;;;;;;;5074337;28;20601;-76
2022/11/12 11:17:55;;;;;;;14.30;12.13;;;;;;;;;;5075204;28;21066;-76
2022/11/12 11:20:48;;;;;;;14.10;12.70;;;;;;;;;;5075006;28;21181;-77
2022/11/12 11:23:43;;;;;;;13.40;12.10;;;;;;;;;;5072893;28;20962;-76
2022/11/12 11:26:40;;;;;;;14.20;11.90;;;;;;;;;;5068037;28;20449;-76
2022/11/12 11:29:41;;;;;;;13.90;11.27;;;;;;;;;;5071605;28;20479;-77
2022/11/12 11:32:40;;;;;;;11.80;10.60;;;;;;;;;;5055149;28;20477;-76
2022/11/12 11:35:32;;;;;;;11.57;10.57;;;;;;;;;;5066099;28;20981;-77
2022/11/12 11:38:31;;;;;;;11.43;10.40;;;;;;;;;;5072052;28;20453;-75
2022/11/12 11:41:30;;;;;;;12.77;11.50;;;;;;;;;;5066506;28;20477;-75
2022/11/12 11:44:27;;;;;;;11.60;10.50;;;;;;;;;;5071111;28;20918;-78
2022/11/12 11:47:22;;;;;;;11.80;10.70;;;;;;;;;;5061335;28;20609;-77
2022/11/12 11:50:18;;;;;;;13.67;10.83;;;;;;;;;;5069572;28;20462;-76
2022/11/12 11:53:16;;;;;;;12.13;11.03;;;;;;;;;;5060863;28;20490;-76
2022/11/12 11:56:10;;;;;;;13.40;12.20;;;;;;;;;;5072024;28;22446;-76
2022/11/12 11:59:08;;;;;;;12.03;11.03;;;;;;;;;;5066350;28;20450;-76
2022/11/12 12:02:03;;;;;;;12.33;11.20;;;;;;;;;;5064401;28;20488;-75
2022/11/12 12:04:54;;;;;;;11.10;10.10;;;;;;;;;;5060656;28;21301;-75
2022/11/12 12:07:48;;;;;;;10.40;9.40;;;;;;;;;;5068578;28;22138;-75
2022/11/12 12:10:44;;;;;;;10.20;9.27;;;;;;;;;;5087700;28;20485;-75
2022/11/12 12:14:00;;;;;;;10.77;9.67;;;;;;;;;;5090170;28;20546;-77
2022/11/12 12:17:01;;;;;;;11.57;10.27;;;;;;;;;;5084947;28;20518;-77
2022/11/12 12:19:58;;;;;;;10.40;9.40;;;;;;;;;;5089170;28;20457;-77
2022/11/12 12:22:51;;;;;;;11.53;10.47;;;;;;;;;;5078541;28;20499;-75
2022/11/12 12:25:41;;;;;;;11.63;10.50;;;;;;;;;;5072724;28;20751;-75
2022/11/12 12:28:35;;;;;;;11.00;9.90;;;;;;;;;;5068077;28;20442;-75
2022/11/12 12:31:29;;;;;;;15.27;10.67;;;;;;;;;;5065517;28;20516;-75
2022/11/12 12:34:20;;;;;;;11.07;9.97;;;;;;;;;;5064804;28;20612;-75
2022/11/12 12:37:13;;;;;;;11.40;10.20;;;;;;;;;;5067894;28;20536;-75
2022/11/12 12:40:05;;;;;;;11.40;9.67;;;;;;;;;;5075308;28;20457;-75
2022/11/12 12:42:57;;;;;;;11.37;10.37;;;;;;;;;;5070979;28;20469;-75
2022/11/12 12:45:47;;;;;;;11.33;10.17;;;;;;;;;;5068274;28;20446;-75
2022/11/12 12:48:37;;;;;;;11.10;9.90;;;;;;;;;;5073781;28;20445;-74
2022/11/12 12:51:28;;;;;;;12.83;10.30;;;;;;;;;;5070349;28;21016;-74
2022/11/12 12:54:36;;;;;;;12.87;11.47;;;;;;;;;;5065524;28;20496;-75
2022/11/12 12:57:31;;;;;;;13.10;11.87;;;;;;;;;;5070963;28;20453;-74
2022/11/12 13:00:28;;;;;;;12.70;11.40;;;;;;;;;;5070578;28;20484;-74
2022/11/12 13:03:31;;;;;;;13.17;11.30;;;;;;;;;;5060659;28;20884;-75
2022/11/12 13:06:23;;;;;;;13.70;12.37;;;;;;;;;;5073114;28;20461;-74
2022/11/12 13:09:22;;;;;;;15.57;13.80;;;;;;;;;;5076238;28;20457;-74
2022/11/12 13:12:21;;;;;;;14.70;13.40;;;;;;;;;;5072452;28;20484;-74
2022/11/12 13:15:14;;;;;;;15.13;13.57;;;;;;;;;;5060026;28;20478;-74
2022/11/12 13:18:02;;;;;;;16.00;14.30;;;;;;;;;;5059764;28;20466;-75
2022/11/12 13:21:08;;;;;;;17.67;14.70;;;;;;;;;;5059463;28;20520;-74
2022/11/12 13:24:10;;;;;;;14.90;13.30;;;;;;;;;;5068142;28;20456;-75
2022/11/12 13:26:59;;;;;;;15.30;12.63;;;;;;;;;;5067356;28;20446;-74
2022/11/12 13:29:51;;;;;;;15.13;13.70;;;;;;;;;;5070551;28;20510;-75
2022/11/12 13:32:44;;;;;;;15.70;12.87;;;;;;;;;;5074692;28;20556;-75
2022/11/12 13:35:35;;;;;;;15.83;13.10;;;;;;;;;;5076279;28;20473;-74
2022/11/12 13:38:29;;;;;;;14.27;12.77;;;;;;;;;;5071129;28;20449;-74
2022/11/12 13:42:46;;;;;;;13.47;11.60;;;;;;;;;;5065459;28;20500;-74
2022/11/12 13:44:29;;;;;;;13.93;11.50;;;;;;;;;;5079997;28;20460;-74
2022/11/12 13:47:20;;;;;;;15.33;11.70;;;;;;;;;;5068501;28;20456;-74
2022/11/12 13:50:17;;;;;;;16.33;12.10;;;;;;;;;;5079610;28;20565;-74
2022/11/12 13:53:08;;;;;;;14.13;11.47;;;;;;;;;;5070434;28;20457;-74
2022/11/12 13:55:57;;;;;;;12.20;10.93;;;;;;;;;;5073444;28;20489;-75
2022/11/12 13:58:45;;;;;;;13.77;10.70;;;;;;;;;;5071245;28;20458;-74
2022/11/12 14:01:36;;;;;;;12.37;10.80;;;;;;;;;;5075349;28;20581;-74
2022/11/12 14:04:25;;;;;;;12.37;10.73;;;;;;;;;;5078518;28;20496;-75
2022/11/12 14:07:26;;;;;;;13.30;10.60;;;;;;;;;;5062136;28;20453;-75
2022/11/12 14:10:24;;;;;;;12.43;11.13;;;;;;;;;;5062633;28;22411;-74
2022/11/12 14:13:19;;;;;;;11.80;10.03;;;;;;;;;;5061588;28;20449;-74
2022/11/12 14:16:26;;;;;;;11.17;10.07;;;;;;;;;;5061571;28;20456;-74
2022/11/12 14:19:32;;;;;;;10.90;9.80;;;;;;;;;;5073529;28;20464;-75
2022/11/12 14:22:23;;;;;;;10.37;9.33;;;;;;;;;;5045764;28;20470;-75
2022/11/12 14:25:15;;;;;;;11.20;9.30;;;;;;;;;;5070796;28;20454;-74
2022/11/12 14:28:04;;;;;;;13.80;10.70;;;;;;;;;;5067711;28;20477;-74
2022/11/12 14:30:52;;;;;;;11.80;10.50;;;;;;;;;;5075688;28;20488;-74
2022/11/12 14:33:42;;;;;;;10.97;10.00;;;;;;;;;;5077699;28;20484;-74
2022/11/12 14:36:31;;;;;;;10.37;9.27;;;;;;;;;;5076341;28;20454;-74
2022/11/12 14:39:21;;;;;;;11.80;10.57;;;;;;;;;;5073834;28;20453;-74
2022/11/12 14:42:14;;;;;;;13.40;10.03;;;;;;;;;;5068412;28;20508;-74
2022/11/12 14:45:03;;;;;;;10.43;9.43;;;;;;;;;;5068486;28;20847;-74
2022/11/12 14:47:54;;;;;;;11.07;9.93;;;;;;;;;;5077291;28;21237;-74
2022/11/12 14:50:46;;;;;;;10.83;9.20;;;;;;;;;;5081308;28;20469;-74
2022/11/12 14:53:40;;;;;;;10.60;9.60;;;;;;;;;;5075112;28;20452;-74
2022/11/12 14:56:35;;;;;;;11.10;9.90;;;;;;;;;;5073163;28;20451;-74
2022/11/12 14:59:26;;;;;;;11.40;10.23;;;;;;;;;;5054210;28;20450;-74
2022/11/12 15:02:20;;;;;;;11.70;10.47;;;;;;;;;;5065997;28;20484;-74
2022/11/12 15:05:29;;;;;;;11.37;10.30;;;;;;;;;;5062977;28;21488;-74
2022/11/12 15:08:28;;;;;;;9.53;8.60;;;;;;;;;;5070357;28;20939;-74
2022/11/12 15:11:22;;;;;;;10.10;9.10;;;;;;;;;;5056763;28;20478;-74
2022/11/12 15:14:24;;;;;;;10.00;9.07;;;;;;;;;;5052989;28;20555;-74
2022/11/12 15:17:24;;;;;;;10.17;9.27;;;;;;;;;;5062479;28;20522;-74
2022/11/12 15:20:14;;;;;;;11.10;9.70;;;;;;;;;;5064295;28;20454;-74
2022/11/12 15:23:03;;;;;;;12.90;8.70;;;;;;;;;;5067468;28;20463;-75
2022/11/12 15:25:58;;;;;;;9.73;8.67;;;;;;;;;;5068915;28;20450;-74
2022/11/12 15:29:00;;;;;;;10.47;9.30;;;;;;;;;;5060385;28;20768;-74
2022/11/12 15:31:53;;;;;;;20.07;15.67;;;;;;;;;;5060528;28;20476;-74
2022/11/12 15:34:46;;;;;;;29.30;23.37;;;;;;;;;;5070943;28;20481;-74
2022/11/12 15:37:41;;;;;;;35.10;27.83;;;;;;;;;;5065281;28;20552;-74
2022/11/12 15:40:32;;;;;;;23.00;18.07;;;;;;;;;;5066274;28;20465;-74
2022/11/12 15:43:25;;;;;;;22.30;19.57;;;;;;;;;;5074425;28;20452;-74
2022/11/12 15:46:15;;;;;;;20.70;17.80;;;;;;;;;;5067748;28;20457;-74
2022/11/12 15:49:12;;;;;;;18.23;16.47;;;;;;;;;;5072077;28;20449;-74
2022/11/12 15:52:03;;;;;;;16.13;14.33;;;;;;;;;;5071448;28;20479;-74
2022/11/12 15:54:54;;;;;;;18.70;16.63;;;;;;;;;;5065443;28;21015;-74
2022/11/12 15:57:45;;;;;;;22.27;18.13;;;;;;;;;;5071561;28;20446;-74
2022/11/12 16:00:35;;;;;;;34.53;24.83;;;;;;;;;;5070026;28;20481;-73
2022/11/12 16:03:25;;;;;;;22.50;17.43;;;;;;;;;;5063177;28;20454;-74
2022/11/12 16:06:15;;;;;;;14.87;12.83;;;;;;;;;;5073955;28;20532;-73
2022/11/12 16:09:04;;;;;;;31.20;23.27;;;;;;;;;;5063638;28;20639;-73
2022/11/12 16:11:56;;;;;;;38.60;31.53;;;;;;;;;;5074624;28;20492;-74
2022/11/12 16:14:44;;;;;;;31.57;24.37;;;;;;;;;;5077676;28;20487;-74
2022/11/12 16:17:33;;;;;;;31.83;23.30;;;;;;;;;;5096079;28;20442;-75
2022/11/12 16:20:23;;;;;;;29.93;23.30;;;;;;;;;;5096971;28;20478;-75
2022/11/12 16:23:16;;;;;;;26.97;20.20;;;;;;;;;;5095719;28;20467;-74
2022/11/12 16:26:07;;;;;;;25.93;20.53;;;;;;;;;;5102243;28;20461;-74
2022/11/12 16:29:00;;;;;;;23.37;18.40;;;;;;;;;;5104860;28;20526;-74
2022/11/12 16:31:51;;;;;;;16.13;14.37;;;;;;;;;;5098532;28;20883;-74
2022/11/12 16:34:39;;;;;;;19.83;13.00;;;;;;;;;;5091950;28;20453;-74
2022/11/12 16:37:28;;;;;;;13.43;11.80;;;;;;;;;;5086380;28;20457;-75
2022/11/12 16:40:22;;;;;;;12.00;10.57;;;;;;;;;;5082922;28;21081;-75
2022/11/12 16:43:11;;;;;;;12.47;10.77;;;;;;;;;;5069600;28;20561;-75
2022/11/12 16:45:59;;;;;;;13.27;10.90;;;;;;;;;;5069615;28;20440;-74
2022/11/12 16:48:51;;;;;;;14.50;11.40;;;;;;;;;;5069972;28;20453;-74
2022/11/12 16:51:40;;;;;;;13.20;11.27;;;;;;;;;;5057181;28;20860;-75
2022/11/12 16:54:28;;;;;;;14.30;11.40;;;;;;;;;;5049585;28;20457;-75
2022/11/12 16:57:18;;;;;;;14.67;12.17;;;;;;;;;;5057872;28;20549;-75
2022/11/12 17:00:13;;;;;;;17.23;12.90;;;;;;;;;;5054078;28;20545;-74
2022/11/12 17:03:01;;;;;;;15.37;12.03;;;;;;;;;;5067405;28;20485;-74
2022/11/12 17:05:52;;;;;;;15.67;14.17;;;;;;;;;;5051627;28;20461;-74
2022/11/12 17:08:40;;;;;;;20.40;18.50;;;;;;;;;;5059535;28;20451;-74
2022/11/12 17:11:29;;;;;;;21.57;19.27;;;;;;;;;;5063098;28;20476;-75